Time;durP1;ratioP1;P1;durP2;ratioP2;P2;SDS_P1;SDS_P2;PMS_P1;PMS_P2;Temp;Humidity;BMP_temperature;BMP_pressure;BME280_temperature;BME280_humidity;BME280_pressure;Samples;Min_cycle;Max_cycle;Signal;HPM_P1;HPM_P2
2022/09/06 00:00:55;;;;;;;0.50;0.50;;;;;;;;;;1889116;74;26202;-46
2022/09/06 00:03:22;;;;;;;0.50;0.50;;;;;;;;;;1868455;76;26333;-47
2022/09/06 00:05:50;;;;;;;0.50;0.50;;;;;;;;;;1874449;75;26644;-48
2022/09/06 00:08:17;;;;;;;0.50;0.50;;;;;;;;;;1887110;75;26231;-48
2022/09/06 00:10:45;;;;;;;1.35;0.50;;;;;;;;;;1870293;75;26202;-43
2022/09/06 00:13:12;;;;;;;1.05;0.57;;;;;;;;;;1882123;75;26269;-45
2022/09/06 00:15:39;;;;;;;0.57;0.57;;;;;;;;;;1886056;75;26294;-43
2022/09/06 00:18:07;;;;;;;0.60;0.60;;;;;;;;;;1893804;75;26110;-49
2022/09/06 00:20:37;;;;;;;0.55;0.55;;;;;;;;;;1892162;75;26400;-50
2022/09/06 00:23:05;;;;;;;0.55;0.55;;;;;;;;;;1893569;75;26789;-49
2022/09/06 00:25:32;;;;;;;0.60;0.60;;;;;;;;;;1879105;75;26246;-44
2022/09/06 00:28:01;;;;;;;0.50;0.50;;;;;;;;;;1900132;75;26744;-48
2022/09/06 00:30:29;;;;;;;0.60;0.60;;;;;;;;;;1896035;75;26187;-42
2022/09/06 00:32:57;;;;;;;1.40;1.02;;;;;;;;;;1900701;75;26640;-45
2022/09/06 00:35:25;;;;;;;0.50;0.50;;;;;;;;;;1880859;75;26345;-47
2022/09/06 00:37:54;;;;;;;0.60;0.60;;;;;;;;;;1900778;75;26321;-48
2022/09/06 00:40:21;;;;;;;0.50;0.50;;;;;;;;;;1886285;75;26251;-43
2022/09/06 00:42:48;;;;;;;0.62;0.60;;;;;;;;;;1878645;75;26242;-44
2022/09/06 00:45:16;;;;;;;0.60;0.60;;;;;;;;;;1877766;75;26839;-47
2022/09/06 00:47:43;;;;;;;0.60;0.60;;;;;;;;;;1886024;75;26297;-53
2022/09/06 00:50:12;;;;;;;0.50;0.50;;;;;;;;;;1872081;75;26305;-49
2022/09/06 00:52:41;;;;;;;0.60;0.60;;;;;;;;;;1857845;77;26805;-49
2022/09/06 00:55:08;;;;;;;0.47;0.47;;;;;;;;;;1839989;76;26271;-47
2022/09/06 00:57:36;;;;;;;0.60;0.60;;;;;;;;;;1847136;76;26635;-47
2022/09/06 01:00:05;;;;;;;0.60;0.60;;;;;;;;;;1864119;76;26239;-49
2022/09/06 01:02:32;;;;;;;0.53;0.53;;;;;;;;;;1864058;76;26344;-49
2022/09/06 01:04:59;;;;;;;0.50;0.50;;;;;;;;;;1861315;76;26212;-47
2022/09/06 01:07:45;;;;;;;0.60;0.60;;;;;;;;;;1834589;77;26284;-47
2022/09/06 01:10:23;;;;;;;0.70;0.70;;;;;;;;;;1864086;77;26250;-48
2022/09/06 01:13:08;;;;;;;0.40;0.40;;;;;;;;;;1862426;77;26251;-45
2022/09/06 01:15:55;;;;;;;0.55;0.55;;;;;;;;;;1852184;76;26731;-48
2022/09/06 01:18:27;;;;;;;0.60;0.60;;;;;;;;;;1859335;77;26296;-42
2022/09/06 01:20:56;;;;;;;0.45;0.45;;;;;;;;;;1846902;77;26376;-43
2022/09/06 01:23:24;;;;;;;0.60;0.60;;;;;;;;;;1857047;77;26272;-47
2022/09/06 01:25:53;;;;;;;0.60;0.60;;;;;;;;;;1854803;77;26360;-49
2022/09/06 01:28:25;;;;;;;0.50;0.50;;;;;;;;;;1846857;77;26329;-43
2022/09/06 01:31:06;;;;;;;0.50;0.50;;;;;;;;;;1846858;77;26199;-46
2022/09/06 01:33:37;;;;;;;1.07;0.40;;;;;;;;;;1845901;77;26267;-46
2022/09/06 01:36:06;;;;;;;0.53;0.53;;;;;;;;;;1851991;77;26340;-50
2022/09/06 01:38:34;;;;;;;0.80;0.80;;;;;;;;;;1853828;77;26234;-46
2022/09/06 01:41:01;;;;;;;0.50;0.50;;;;;;;;;;1857510;76;26270;-43
2022/09/06 01:43:33;;;;;;;0.60;0.60;;;;;;;;;;1861746;77;26302;-43
2022/09/06 01:46:11;;;;;;;0.60;0.60;;;;;;;;;;1851384;76;26337;-45
2022/09/06 01:48:49;;;;;;;0.68;0.68;;;;;;;;;;1852339;76;26332;-50
2022/09/06 01:51:34;;;;;;;1.35;0.55;;;;;;;;;;1884493;76;26364;-47
2022/09/06 01:54:18;;;;;;;0.53;0.53;;;;;;;;;;1873018;76;26231;-50
2022/09/06 01:57:02;;;;;;;0.70;0.70;;;;;;;;;;1877280;75;26713;-47
2022/09/06 01:59:37;;;;;;;0.78;0.53;;;;;;;;;;1877685;75;26259;-52
2022/09/06 02:02:06;;;;;;;0.65;0.53;;;;;;;;;;1880857;76;26239;-46
2022/09/06 02:04:34;;;;;;;0.60;0.60;;;;;;;;;;1886082;76;26235;-46
2022/09/06 02:07:03;;;;;;;0.50;0.50;;;;;;;;;;1887312;75;26274;-48
2022/09/06 02:09:32;;;;;;;0.40;0.40;;;;;;;;;;1878873;76;26292;-44
2022/09/06 02:12:01;;;;;;;0.50;0.50;;;;;;;;;;1887676;75;26321;-49
2022/09/06 02:14:30;;;;;;;0.50;0.50;;;;;;;;;;1870373;76;26328;-44
2022/09/06 02:16:58;;;;;;;0.50;0.50;;;;;;;;;;1863801;76;25416;-51
2022/09/06 02:19:38;;;;;;;0.55;0.55;;;;;;;;;;1861245;75;26758;-47
2022/09/06 02:22:07;;;;;;;0.60;0.60;;;;;;;;;;1868656;76;26243;-46
2022/09/06 02:24:36;;;;;;;0.50;0.50;;;;;;;;;;1875042;76;26251;-50
2022/09/06 02:27:03;;;;;;;0.50;0.50;;;;;;;;;;1862819;75;26316;-47
2022/09/06 02:29:31;;;;;;;0.60;0.60;;;;;;;;;;1860518;75;26413;-45
2022/09/06 02:32:09;;;;;;;0.57;0.57;;;;;;;;;;1860296;75;26172;-49
2022/09/06 02:34:44;;;;;;;0.60;0.60;;;;;;;;;;1869370;75;26428;-44
2022/09/06 02:37:07;;;;;;;0.57;0.57;;;;;;;;;;1877987;75;26893;-46
2022/09/06 02:39:35;;;;;;;0.50;0.50;;;;;;;;;;1878579;76;26340;-45
2022/09/06 02:42:03;;;;;;;0.45;0.45;;;;;;;;;;1885855;76;26238;-46
2022/09/06 02:44:31;;;;;;;0.57;0.57;;;;;;;;;;1877901;75;26255;-49
2022/09/06 02:47:00;;;;;;;0.40;0.40;;;;;;;;;;1885034;75;26749;-44
2022/09/06 02:49:27;;;;;;;0.50;0.50;;;;;;;;;;1882447;75;26802;-55
2022/09/06 02:51:55;;;;;;;0.50;0.50;;;;;;;;;;1874990;75;26266;-49
2022/09/06 02:54:23;;;;;;;0.65;0.65;;;;;;;;;;1893102;75;26859;-52
2022/09/06 02:56:51;;;;;;;0.50;0.50;;;;;;;;;;1887201;75;26819;-47
2022/09/06 02:59:18;;;;;;;0.50;0.50;;;;;;;;;;1894129;75;26408;-46
2022/09/06 03:01:45;;;;;;;0.50;0.50;;;;;;;;;;1894028;75;27844;-51
2022/09/06 03:04:13;;;;;;;0.50;0.50;;;;;;;;;;1894931;75;26741;-44
2022/09/06 03:06:40;;;;;;;0.50;0.50;;;;;;;;;;1895369;75;26721;-42
2022/09/06 03:09:09;;;;;;;0.50;0.50;;;;;;;;;;1896746;75;26714;-47
2022/09/06 03:11:37;;;;;;;0.60;0.60;;;;;;;;;;1884950;75;26706;-48
2022/09/06 03:14:04;;;;;;;0.53;0.53;;;;;;;;;;1891772;75;26316;-50
2022/09/06 03:16:31;;;;;;;0.40;0.40;;;;;;;;;;1882447;75;26231;-47
2022/09/06 03:18:58;;;;;;;0.40;0.40;;;;;;;;;;1889561;75;26724;-47
2022/09/06 03:21:26;;;;;;;0.50;0.50;;;;;;;;;;1899777;75;27025;-50
2022/09/06 03:23:53;;;;;;;0.50;0.50;;;;;;;;;;1895884;75;26651;-44
2022/09/06 03:26:21;;;;;;;0.50;0.50;;;;;;;;;;1901323;75;26301;-48
2022/09/06 03:28:49;;;;;;;0.50;0.50;;;;;;;;;;1899844;74;26729;-50
2022/09/06 03:31:16;;;;;;;0.50;0.50;;;;;;;;;;1886494;74;26308;-41
2022/09/06 03:33:44;;;;;;;0.50;0.50;;;;;;;;;;1893789;75;26706;-46
2022/09/06 03:36:11;;;;;;;0.50;0.50;;;;;;;;;;1900849;75;26316;-49
2022/09/06 03:38:38;;;;;;;0.40;0.40;;;;;;;;;;1907466;75;26184;-46
2022/09/06 03:41:06;;;;;;;0.40;0.40;;;;;;;;;;1893173;75;26289;-47
2022/09/06 03:43:33;;;;;;;1.30;0.57;;;;;;;;;;1895323;75;26388;-49
2022/09/06 03:46:01;;;;;;;0.42;0.42;;;;;;;;;;1897171;75;26227;-48
2022/09/06 03:48:29;;;;;;;0.50;0.50;;;;;;;;;;1890817;75;26306;-44
2022/09/06 03:50:57;;;;;;;0.40;0.40;;;;;;;;;;1896133;75;26228;-52
2022/09/06 03:53:25;;;;;;;0.47;0.47;;;;;;;;;;1883539;75;26313;-50
2022/09/06 03:55:54;;;;;;;0.62;0.62;;;;;;;;;;1873218;76;26227;-49
2022/09/06 03:58:22;;;;;;;0.60;0.60;;;;;;;;;;1884236;76;25721;-50
2022/09/06 04:00:49;;;;;;;0.50;0.50;;;;;;;;;;1883400;76;26242;-49
2022/09/06 04:03:18;;;;;;;0.50;0.50;;;;;;;;;;1877508;76;26574;-44
2022/09/06 04:05:46;;;;;;;0.40;0.40;;;;;;;;;;1871330;76;26239;-42
2022/09/06 04:08:13;;;;;;;0.40;0.40;;;;;;;;;;1879185;75;26294;-49
2022/09/06 04:10:41;;;;;;;0.60;0.60;;;;;;;;;;1883040;76;26294;-46
2022/09/06 04:13:08;;;;;;;0.60;0.60;;;;;;;;;;1875828;76;26311;-53
2022/09/06 04:15:36;;;;;;;3.55;0.60;;;;;;;;;;1883153;76;26640;-48
2022/09/06 04:18:03;;;;;;;0.50;0.50;;;;;;;;;;1875300;75;26208;-48
2022/09/06 04:20:30;;;;;;;0.50;0.50;;;;;;;;;;1874825;76;26667;-46
2022/09/06 04:22:57;;;;;;;0.62;0.57;;;;;;;;;;1884142;76;27321;-47
2022/09/06 04:25:25;;;;;;;1.85;0.60;;;;;;;;;;1883264;76;26715;-49
2022/09/06 04:27:52;;;;;;;0.50;0.50;;;;;;;;;;1881409;75;26534;-48
2022/09/06 04:30:19;;;;;;;1.15;0.50;;;;;;;;;;1877460;76;26238;-52
2022/09/06 04:32:47;;;;;;;1.02;0.45;;;;;;;;;;1879720;76;26668;-46
2022/09/06 04:35:14;;;;;;;0.55;0.55;;;;;;;;;;1871588;76;26235;-48
2022/09/06 04:37:41;;;;;;;0.80;0.60;;;;;;;;;;1884021;76;26287;-49
2022/09/06 04:40:09;;;;;;;0.53;0.53;;;;;;;;;;1884685;75;26341;-49
2022/09/06 04:42:36;;;;;;;0.53;0.53;;;;;;;;;;1885052;76;26294;-49
2022/09/06 04:45:04;;;;;;;2.72;0.50;;;;;;;;;;1883359;76;26177;-53
2022/09/06 04:47:31;;;;;;;0.62;0.40;;;;;;;;;;1883998;76;26287;-46
2022/09/06 04:49:59;;;;;;;0.40;0.40;;;;;;;;;;1886210;76;26232;-54
2022/09/06 04:52:26;;;;;;;1.47;0.70;;;;;;;;;;1884655;76;26341;-47
2022/09/06 04:54:53;;;;;;;0.50;0.50;;;;;;;;;;1874548;75;26267;-49
2022/09/06 04:57:20;;;;;;;0.60;0.57;;;;;;;;;;1877032;76;26386;-45
2022/09/06 04:59:48;;;;;;;0.42;0.42;;;;;;;;;;1878447;76;26321;-47
2022/09/06 05:02:15;;;;;;;0.95;0.60;;;;;;;;;;1880548;76;26810;-46
2022/09/06 05:04:42;;;;;;;0.60;0.60;;;;;;;;;;1884298;76;26690;-43
2022/09/06 05:07:09;;;;;;;0.50;0.50;;;;;;;;;;1877203;76;26232;-48
2022/09/06 05:09:37;;;;;;;0.50;0.50;;;;;;;;;;1866902;76;26306;-45
2022/09/06 05:12:04;;;;;;;0.80;0.45;;;;;;;;;;1849456;76;26266;-49
2022/09/06 05:14:31;;;;;;;4.75;0.98;;;;;;;;;;1882820;76;26796;-43
2022/09/06 05:16:59;;;;;;;3.85;0.62;;;;;;;;;;1866537;76;26729;-50
2022/09/06 05:19:26;;;;;;;1.95;0.50;;;;;;;;;;1864589;75;27729;-45
2022/09/06 05:21:53;;;;;;;0.50;0.50;;;;;;;;;;1859727;77;26232;-47
2022/09/06 05:24:20;;;;;;;1.20;0.53;;;;;;;;;;1875175;75;26231;-43
2022/09/06 05:26:48;;;;;;;0.90;0.60;;;;;;;;;;1883444;76;26238;-47
2022/09/06 05:29:15;;;;;;;1.30;0.65;;;;;;;;;;1878024;75;26283;-48
2022/09/06 05:31:42;;;;;;;1.87;0.50;;;;;;;;;;1874227;76;26367;-45
2022/09/06 05:34:12;;;;;;;4.10;0.50;;;;;;;;;;1860507;75;26332;-46
2022/09/06 05:36:40;;;;;;;0.40;0.40;;;;;;;;;;1877907;75;26745;-50
2022/09/06 05:39:07;;;;;;;2.58;0.70;;;;;;;;;;1881764;76;26232;-48
2022/09/06 05:41:35;;;;;;;1.10;0.47;;;;;;;;;;1884100;76;26735;-46
2022/09/06 05:44:02;;;;;;;0.65;0.50;;;;;;;;;;1880973;76;26707;-50
2022/09/06 05:46:30;;;;;;;0.62;0.55;;;;;;;;;;1867932;75;26251;-44
2022/09/06 05:49:06;;;;;;;0.62;0.50;;;;;;;;;;1859211;75;26254;-45
2022/09/06 05:51:31;;;;;;;0.42;0.42;;;;;;;;;;1867278;76;26278;-45
2022/09/06 05:53:59;;;;;;;1.45;0.50;;;;;;;;;;1864983;76;26219;-52
2022/09/06 05:56:26;;;;;;;1.37;0.50;;;;;;;;;;1877307;76;26317;-46
2022/09/06 05:58:53;;;;;;;2.10;0.70;;;;;;;;;;1856304;76;26246;-48
2022/09/06 06:01:23;;;;;;;1.32;0.50;;;;;;;;;;1860836;76;26248;-45
2022/09/06 06:03:51;;;;;;;0.40;0.40;;;;;;;;;;1858128;75;26359;-45
2022/09/06 06:06:19;;;;;;;2.62;0.50;;;;;;;;;;1863263;76;26219;-49
2022/09/06 06:08:47;;;;;;;0.60;0.60;;;;;;;;;;1885948;76;26216;-48
2022/09/06 06:11:14;;;;;;;0.30;0.30;;;;;;;;;;1883377;76;26247;-48
2022/09/06 06:13:42;;;;;;;1.55;0.72;;;;;;;;;;1873484;76;26720;-48
2022/09/06 06:16:11;;;;;;;0.72;0.50;;;;;;;;;;1864675;76;26357;-49
2022/09/06 06:18:38;;;;;;;0.60;0.60;;;;;;;;;;1855505;76;26331;-45
2022/09/06 06:21:07;;;;;;;0.57;0.57;;;;;;;;;;1877464;76;26232;-47
2022/09/06 06:23:35;;;;;;;1.47;0.40;;;;;;;;;;1865957;76;26984;-48
2022/09/06 06:26:02;;;;;;;0.60;0.60;;;;;;;;;;1856807;76;26717;-48
2022/09/06 06:28:29;;;;;;;0.50;0.50;;;;;;;;;;1863234;76;26255;-44
2022/09/06 06:30:57;;;;;;;0.50;0.40;;;;;;;;;;1872832;75;26330;-52
2022/09/06 06:33:24;;;;;;;0.98;0.50;;;;;;;;;;1875123;75;26235;-46
2022/09/06 06:35:59;;;;;;;0.50;0.50;;;;;;;;;;1884815;76;26529;-50
2022/09/06 06:38:33;;;;;;;4.22;0.62;;;;;;;;;;1876777;76;26354;-41
2022/09/06 06:41:00;;;;;;;1.62;0.50;;;;;;;;;;1865240;76;26231;-48
2022/09/06 06:43:28;;;;;;;0.40;0.40;;;;;;;;;;1881518;76;26404;-45
2022/09/06 06:45:55;;;;;;;0.40;0.40;;;;;;;;;;1877667;76;26325;-42
2022/09/06 06:48:23;;;;;;;1.35;0.80;;;;;;;;;;1882306;76;26349;-42
2022/09/06 06:50:50;;;;;;;0.40;0.40;;;;;;;;;;1864496;76;26266;-46
2022/09/06 06:53:18;;;;;;;0.50;0.50;;;;;;;;;;1871650;75;26650;-42
2022/09/06 06:55:47;;;;;;;1.00;0.70;;;;;;;;;;1897183;75;26251;-40
2022/09/06 06:58:17;;;;;;;0.53;0.53;;;;;;;;;;1895960;75;26255;-44
2022/09/06 07:00:45;;;;;;;1.40;0.60;;;;;;;;;;1901468;75;26384;-43
2022/09/06 07:03:12;;;;;;;0.53;0.53;;;;;;;;;;1903330;75;26259;-46
2022/09/06 07:05:46;;;;;;;1.92;0.55;;;;;;;;;;1904918;75;26258;-44
2022/09/06 07:08:13;;;;;;;0.40;0.40;;;;;;;;;;1895091;75;26698;-40
2022/09/06 07:10:40;;;;;;;0.65;0.65;;;;;;;;;;1905670;75;26285;-46
2022/09/06 07:13:08;;;;;;;2.08;0.50;;;;;;;;;;1886421;75;26266;-47
2022/09/06 07:15:35;;;;;;;2.00;0.50;;;;;;;;;;1901718;75;26184;-49
2022/09/06 07:18:02;;;;;;;0.50;0.50;;;;;;;;;;1897756;75;26312;-43
2022/09/06 07:20:29;;;;;;;0.60;0.50;;;;;;;;;;1892107;75;26740;-40
2022/09/06 07:23:00;;;;;;;0.30;0.30;;;;;;;;;;1909580;75;26761;-42
2022/09/06 07:25:28;;;;;;;0.40;0.40;;;;;;;;;;1907394;75;26258;-40
2022/09/06 07:27:56;;;;;;;0.50;0.50;;;;;;;;;;1891477;75;26250;-44
2022/09/06 07:30:24;;;;;;;0.47;0.47;;;;;;;;;;1882206;75;26223;-38
2022/09/06 07:32:51;;;;;;;0.30;0.30;;;;;;;;;;1880490;75;26198;-42
2022/09/06 07:35:19;;;;;;;0.40;0.40;;;;;;;;;;1892062;75;27389;-43
2022/09/06 07:37:53;;;;;;;0.40;0.40;;;;;;;;;;1899521;75;26330;-43
2022/09/06 07:40:21;;;;;;;0.40;0.40;;;;;;;;;;1884951;75;26312;-45
2022/09/06 07:42:48;;;;;;;0.47;0.47;;;;;;;;;;1900283;75;26729;-42
2022/09/06 07:45:15;;;;;;;1.45;0.55;;;;;;;;;;1889578;75;26227;-44
2022/09/06 07:47:43;;;;;;;0.60;0.60;;;;;;;;;;1902266;75;26226;-43
2022/09/06 07:50:10;;;;;;;0.47;0.47;;;;;;;;;;1904890;75;26266;-40
2022/09/06 07:52:37;;;;;;;0.40;0.40;;;;;;;;;;1901928;75;26893;-43
2022/09/06 07:55:05;;;;;;;0.30;0.30;;;;;;;;;;1869813;76;26731;-42
2022/09/06 07:57:33;;;;;;;1.62;0.50;;;;;;;;;;1864458;76;26853;-41
2022/09/06 08:00:00;;;;;;;0.40;0.40;;;;;;;;;;1864240;76;26865;-45
2022/09/06 08:02:28;;;;;;;0.40;0.40;;;;;;;;;;1873472;76;26239;-41
2022/09/06 08:04:55;;;;;;;0.40;0.40;;;;;;;;;;1868751;76;26267;-40
2022/09/06 08:07:23;;;;;;;0.40;0.40;;;;;;;;;;1869478;75;26326;-43
2022/09/06 08:09:50;;;;;;;0.30;0.30;;;;;;;;;;1875387;76;26315;-43
2022/09/06 08:12:18;;;;;;;1.27;0.50;;;;;;;;;;1857562;76;26388;-46
2022/09/06 08:14:45;;;;;;;0.50;0.50;;;;;;;;;;1862338;76;26567;-50
2022/09/06 08:17:12;;;;;;;0.50;0.50;;;;;;;;;;1850049;77;26342;-46
2022/09/06 08:19:40;;;;;;;0.50;0.50;;;;;;;;;;1867636;76;26240;-45
2022/09/06 08:22:07;;;;;;;0.50;0.50;;;;;;;;;;1864665;75;26313;-44
2022/09/06 08:24:34;;;;;;;0.30;0.30;;;;;;;;;;1868609;75;26221;-40
2022/09/06 08:27:02;;;;;;;0.40;0.40;;;;;;;;;;1858608;77;26405;-43
2022/09/06 08:29:29;;;;;;;0.95;0.35;;;;;;;;;;1863714;77;26267;-42
2022/09/06 08:31:57;;;;;;;0.40;0.40;;;;;;;;;;1864580;75;26341;-39
2022/09/06 08:34:24;;;;;;;0.40;0.40;;;;;;;;;;1862020;77;26323;-43
2022/09/06 08:36:52;;;;;;;0.50;0.50;;;;;;;;;;1861828;76;26183;-44
2022/09/06 08:39:19;;;;;;;0.40;0.40;;;;;;;;;;1863542;76;26237;-44
2022/09/06 08:41:48;;;;;;;0.40;0.40;;;;;;;;;;1862323;77;26297;-43
2022/09/06 08:44:17;;;;;;;0.35;0.35;;;;;;;;;;1867494;76;26215;-43
2022/09/06 08:47:03;;;;;;;0.45;0.45;;;;;;;;;;1866570;75;26289;-46
2022/09/06 08:49:31;;;;;;;0.95;0.40;;;;;;;;;;1863095;77;26255;-44
2022/09/06 08:52:19;;;;;;;0.37;0.37;;;;;;;;;;1868199;77;26215;-46
2022/09/06 08:55:00;;;;;;;0.37;0.37;;;;;;;;;;1872861;76;26287;-42
2022/09/06 08:57:31;;;;;;;0.50;0.50;;;;;;;;;;1904130;75;26227;-43
2022/09/06 09:00:00;;;;;;;0.40;0.40;;;;;;;;;;1860600;75;26684;-44
2022/09/06 09:02:29;;;;;;;0.50;0.50;;;;;;;;;;1898412;75;26821;-45
2022/09/06 09:04:58;;;;;;;0.45;0.45;;;;;;;;;;1904428;75;27429;-43
2022/09/06 09:07:27;;;;;;;0.37;0.37;;;;;;;;;;1894432;75;26243;-44
2022/09/06 09:09:55;;;;;;;0.40;0.40;;;;;;;;;;1890496;75;26255;-42
2022/09/06 09:12:24;;;;;;;0.30;0.30;;;;;;;;;;1899703;75;26247;-42
2022/09/06 09:14:53;;;;;;;1.55;0.30;;;;;;;;;;1898888;75;26227;-48
2022/09/06 09:17:28;;;;;;;0.30;0.30;;;;;;;;;;1880988;75;26242;-42
2022/09/06 09:19:55;;;;;;;0.65;0.40;;;;;;;;;;1880560;75;26172;-39
2022/09/06 09:22:24;;;;;;;0.40;0.40;;;;;;;;;;1886060;75;26246;-44
2022/09/06 09:24:52;;;;;;;0.40;0.40;;;;;;;;;;1895777;75;26408;-44
2022/09/06 09:27:21;;;;;;;0.40;0.40;;;;;;;;;;1888862;75;26242;-43
2022/09/06 09:29:55;;;;;;;0.40;0.40;;;;;;;;;;1886298;75;26719;-43
2022/09/06 09:32:30;;;;;;;0.30;0.30;;;;;;;;;;1875281;75;27017;-42
2022/09/06 09:35:15;;;;;;;0.40;0.40;;;;;;;;;;1891838;75;26322;-46
2022/09/06 09:37:42;;;;;;;0.60;0.60;;;;;;;;;;1895271;75;26269;-42
2022/09/06 09:40:14;;;;;;;0.40;0.40;;;;;;;;;;1892402;75;26249;-43
2022/09/06 09:42:41;;;;;;;0.50;0.50;;;;;;;;;;1886440;75;26211;-45
2022/09/06 09:45:23;;;;;;;0.40;0.40;;;;;;;;;;1892966;75;26286;-42
2022/09/06 09:47:50;;;;;;;0.60;0.60;;;;;;;;;;1892463;75;26243;-45
2022/09/06 09:50:31;;;;;;;0.35;0.35;;;;;;;;;;1890188;75;27815;-44
2022/09/06 09:53:09;;;;;;;0.40;0.40;;;;;;;;;;1888907;75;26238;-45
2022/09/06 09:55:36;;;;;;;0.40;0.40;;;;;;;;;;1894556;75;27229;-39
2022/09/06 09:58:04;;;;;;;0.50;0.40;;;;;;;;;;1912215;75;26323;-44
2022/09/06 10:00:33;;;;;;;0.40;0.40;;;;;;;;;;1898725;75;26616;-46
2022/09/06 10:03:02;;;;;;;0.40;0.40;;;;;;;;;;1898234;75;26230;-46
2022/09/06 10:05:29;;;;;;;0.33;0.33;;;;;;;;;;1904253;75;26328;-43
2022/09/06 10:07:58;;;;;;;0.40;0.40;;;;;;;;;;1895698;75;26231;-40
2022/09/06 10:10:27;;;;;;;0.30;0.30;;;;;;;;;;1890088;75;26240;-44
2022/09/06 10:13:11;;;;;;;0.40;0.40;;;;;;;;;;1897302;75;26257;-43
2022/09/06 10:15:39;;;;;;;0.37;0.37;;;;;;;;;;1903545;75;26364;-44
2022/09/06 10:18:08;;;;;;;0.50;0.50;;;;;;;;;;1878087;75;26324;-47
2022/09/06 10:20:36;;;;;;;0.50;0.50;;;;;;;;;;1873122;75;26242;-42
2022/09/06 10:23:05;;;;;;;0.50;0.50;;;;;;;;;;1879768;75;26243;-45
2022/09/06 10:25:40;;;;;;;0.40;0.40;;;;;;;;;;1899027;75;26271;-43
2022/09/06 10:28:08;;;;;;;0.40;0.40;;;;;;;;;;1892340;75;26540;-47
2022/09/06 10:30:37;;;;;;;1.00;0.50;;;;;;;;;;1893412;75;26642;-46
2022/09/06 10:33:06;;;;;;;0.60;0.60;;;;;;;;;;1891854;75;26259;-48
2022/09/06 10:35:37;;;;;;;0.40;0.40;;;;;;;;;;1895312;75;26324;-42
2022/09/06 10:38:21;;;;;;;0.50;0.50;;;;;;;;;;1897340;75;26254;-46
2022/09/06 10:40:50;;;;;;;0.57;0.40;;;;;;;;;;1889835;75;26749;-41
2022/09/06 10:43:18;;;;;;;1.00;0.50;;;;;;;;;;1885398;75;26636;-48
2022/09/06 10:46:00;;;;;;;0.68;0.60;;;;;;;;;;1894244;75;26175;-45
2022/09/06 10:48:31;;;;;;;0.35;0.35;;;;;;;;;;1887032;75;26247;-46
2022/09/06 10:51:19;;;;;;;0.40;0.40;;;;;;;;;;1889225;75;26351;-45
2022/09/06 10:53:50;;;;;;;0.37;0.37;;;;;;;;;;1884707;75;26813;-47
2022/09/06 10:56:19;;;;;;;0.75;0.50;;;;;;;;;;1911610;74;26312;-48
2022/09/06 10:58:51;;;;;;;1.22;0.47;;;;;;;;;;1843708;74;26765;-42
2022/09/06 11:01:20;;;;;;;0.50;0.50;;;;;;;;;;1917057;74;26404;-42
2022/09/06 11:03:48;;;;;;;0.60;0.60;;;;;;;;;;1895649;74;26266;-43
2022/09/06 11:06:15;;;;;;;0.40;0.40;;;;;;;;;;1894612;75;26251;-45
2022/09/06 11:08:50;;;;;;;0.40;0.40;;;;;;;;;;1897811;75;26337;-45
2022/09/06 11:11:25;;;;;;;0.50;0.50;;;;;;;;;;1900473;75;26778;-49
2022/09/06 11:13:52;;;;;;;0.50;0.50;;;;;;;;;;1893581;75;26211;-47
2022/09/06 11:16:21;;;;;;;0.53;0.53;;;;;;;;;;1874082;75;26239;-45
2022/09/06 11:18:50;;;;;;;0.60;0.50;;;;;;;;;;1872594;75;26257;-45
2022/09/06 11:21:19;;;;;;;0.47;0.47;;;;;;;;;;1869360;75;26266;-46
2022/09/06 11:23:48;;;;;;;0.55;0.50;;;;;;;;;;1883040;75;26324;-45
2022/09/06 11:26:33;;;;;;;0.50;0.50;;;;;;;;;;1884828;75;26267;-42
2022/09/06 11:29:04;;;;;;;0.50;0.50;;;;;;;;;;1875669;75;26307;-48
2022/09/06 11:31:33;;;;;;;0.70;0.47;;;;;;;;;;1876599;75;26278;-46
2022/09/06 11:34:07;;;;;;;0.40;0.40;;;;;;;;;;1887863;75;26338;-48
2022/09/06 11:36:48;;;;;;;1.40;0.37;;;;;;;;;;1898771;75;26231;-45
2022/09/06 11:39:17;;;;;;;0.47;0.47;;;;;;;;;;1878873;75;26316;-42
2022/09/06 11:41:44;;;;;;;0.50;0.50;;;;;;;;;;1880461;75;26263;-44
2022/09/06 11:44:11;;;;;;;0.55;0.50;;;;;;;;;;1887512;75;26703;-45
2022/09/06 11:46:43;;;;;;;0.40;0.40;;;;;;;;;;1888393;75;26665;-41
2022/09/06 11:49:12;;;;;;;0.53;0.53;;;;;;;;;;1897215;75;26259;-45
2022/09/06 11:51:41;;;;;;;0.60;0.60;;;;;;;;;;1884364;75;26720;-43
2022/09/06 11:54:13;;;;;;;0.50;0.50;;;;;;;;;;1894196;75;26744;-47
2022/09/06 11:56:42;;;;;;;0.55;0.55;;;;;;;;;;1886746;75;27682;-45
2022/09/06 11:59:11;;;;;;;0.50;0.50;;;;;;;;;;1884140;75;26757;-44
2022/09/06 12:01:39;;;;;;;0.50;0.50;;;;;;;;;;1872776;76;27766;-46
2022/09/06 12:04:08;;;;;;;0.60;0.60;;;;;;;;;;1886114;76;26786;-48
2022/09/06 12:06:38;;;;;;;0.50;0.50;;;;;;;;;;1886235;75;26240;-48
2022/09/06 12:09:13;;;;;;;0.50;0.50;;;;;;;;;;1881662;76;26326;-47
2022/09/06 12:11:41;;;;;;;0.60;0.60;;;;;;;;;;1865691;76;26535;-48
2022/09/06 12:14:22;;;;;;;0.40;0.40;;;;;;;;;;1882374;76;26238;-45
2022/09/06 12:17:03;;;;;;;0.50;0.50;;;;;;;;;;1861551;76;27222;-43
2022/09/06 12:19:43;;;;;;;0.50;0.50;;;;;;;;;;1861994;76;26582;-41
2022/09/06 12:22:36;;;;;;;2.25;0.50;;;;;;;;;;1879583;76;26231;-41
2022/09/06 12:25:04;;;;;;;0.68;0.68;;;;;;;;;;1873963;76;26344;-45
2022/09/06 12:27:32;;;;;;;0.50;0.50;;;;;;;;;;1871395;75;26244;-41
2022/09/06 12:30:03;;;;;;;0.55;0.55;;;;;;;;;;1871992;76;26659;-47
2022/09/06 12:32:34;;;;;;;0.50;0.50;;;;;;;;;;1880256;76;26309;-39
2022/09/06 12:35:04;;;;;;;0.47;0.47;;;;;;;;;;1872502;76;26340;-44
2022/09/06 12:37:33;;;;;;;0.40;0.40;;;;;;;;;;1884387;76;26240;-40
2022/09/06 12:40:00;;;;;;;0.42;0.42;;;;;;;;;;1883174;76;26327;-49
2022/09/06 12:42:28;;;;;;;0.50;0.50;;;;;;;;;;1873965;76;26313;-40
2022/09/06 12:44:55;;;;;;;0.53;0.53;;;;;;;;;;1866502;76;26176;-41
2022/09/06 12:47:25;;;;;;;1.25;0.53;;;;;;;;;;1875794;76;27454;-45
2022/09/06 12:49:53;;;;;;;0.40;0.40;;;;;;;;;;1880343;76;26263;-43
2022/09/06 12:52:21;;;;;;;0.53;0.53;;;;;;;;;;1839068;76;26687;-45
2022/09/06 12:54:49;;;;;;;0.53;0.53;;;;;;;;;;1848808;76;26703;-44
2022/09/06 12:57:21;;;;;;;0.40;0.40;;;;;;;;;;1887475;75;26264;-44
2022/09/06 12:59:49;;;;;;;0.50;0.50;;;;;;;;;;1905059;75;26199;-39
2022/09/06 13:02:18;;;;;;;0.50;0.50;;;;;;;;;;1898647;75;26188;-45
2022/09/06 13:04:53;;;;;;;0.53;0.53;;;;;;;;;;1892245;75;26714;-43
2022/09/06 13:07:22;;;;;;;0.55;0.55;;;;;;;;;;1891323;75;26802;-43
2022/09/06 13:09:51;;;;;;;0.60;0.60;;;;;;;;;;1900136;75;26227;-45
2022/09/06 13:12:25;;;;;;;0.50;0.50;;;;;;;;;;1893834;75;26690;-41
2022/09/06 13:14:54;;;;;;;0.50;0.50;;;;;;;;;;1900301;75;26270;-44
2022/09/06 13:17:23;;;;;;;0.53;0.53;;;;;;;;;;1900735;75;26243;-43
2022/09/06 13:19:50;;;;;;;0.60;0.60;;;;;;;;;;1893121;75;26261;-43
2022/09/06 13:22:19;;;;;;;0.42;0.42;;;;;;;;;;1865538;75;26220;-43
2022/09/06 13:24:47;;;;;;;1.12;0.50;;;;;;;;;;1866090;75;25830;-45
2022/09/06 13:27:25;;;;;;;0.90;0.68;;;;;;;;;;1908214;75;26356;-49
2022/09/06 13:29:57;;;;;;;0.60;0.60;;;;;;;;;;1886691;75;26328;-46
2022/09/06 13:32:26;;;;;;;0.40;0.40;;;;;;;;;;1887896;75;26254;-49
2022/09/06 13:34:55;;;;;;;0.53;0.53;;;;;;;;;;1876758;75;26240;-47
2022/09/06 13:37:26;;;;;;;0.45;0.45;;;;;;;;;;1869800;75;26337;-46
2022/09/06 13:39:55;;;;;;;0.50;0.50;;;;;;;;;;1851091;76;26214;-46
2022/09/06 13:42:24;;;;;;;0.70;0.70;;;;;;;;;;1879823;75;26278;-48
2022/09/06 13:44:51;;;;;;;0.53;0.53;;;;;;;;;;1872710;75;26575;-48
2022/09/06 13:47:19;;;;;;;0.50;0.50;;;;;;;;;;1870313;75;26358;-48
2022/09/06 13:49:47;;;;;;;0.40;0.40;;;;;;;;;;1885555;75;26353;-47
2022/09/06 13:52:14;;;;;;;0.68;0.68;;;;;;;;;;1906259;75;26715;-46
2022/09/06 13:54:42;;;;;;;0.50;0.50;;;;;;;;;;1905840;75;26243;-45
2022/09/06 13:57:09;;;;;;;0.60;0.60;;;;;;;;;;1891422;75;26309;-48
2022/09/06 13:59:36;;;;;;;0.40;0.40;;;;;;;;;;1897978;75;26266;-48
2022/09/06 14:02:06;;;;;;;0.50;0.50;;;;;;;;;;1894254;75;26680;-47
2022/09/06 14:04:34;;;;;;;0.60;0.60;;;;;;;;;;1895409;75;26335;-47
2022/09/06 14:07:01;;;;;;;0.65;0.65;;;;;;;;;;1890861;75;26210;-47
2022/09/06 14:09:29;;;;;;;0.50;0.50;;;;;;;;;;1903321;75;26226;-49
2022/09/06 14:11:56;;;;;;;0.50;0.50;;;;;;;;;;1900469;75;26191;-45
2022/09/06 14:14:24;;;;;;;0.50;0.50;;;;;;;;;;1904841;75;26317;-45
2022/09/06 14:16:52;;;;;;;0.60;0.60;;;;;;;;;;1875246;75;26301;-46
2022/09/06 14:19:20;;;;;;;0.50;0.50;;;;;;;;;;1873571;75;26276;-46
2022/09/06 14:21:47;;;;;;;0.60;0.60;;;;;;;;;;1874904;75;26239;-46
2022/09/06 14:24:14;;;;;;;0.60;0.60;;;;;;;;;;1902099;75;26316;-47
2022/09/06 14:26:42;;;;;;;0.60;0.60;;;;;;;;;;1887072;75;26250;-46
2022/09/06 14:29:09;;;;;;;0.60;0.60;;;;;;;;;;1892282;75;26293;-49
2022/09/06 14:31:37;;;;;;;0.50;0.50;;;;;;;;;;1875652;75;26764;-46
2022/09/06 14:34:04;;;;;;;0.50;0.50;;;;;;;;;;1891554;75;26315;-45
2022/09/06 14:36:33;;;;;;;0.50;0.50;;;;;;;;;;1895006;75;26267;-49
2022/09/06 14:39:01;;;;;;;0.60;0.60;;;;;;;;;;1895482;75;26312;-45
2022/09/06 14:41:29;;;;;;;8.53;0.72;;;;;;;;;;1909383;75;26242;-44
2022/09/06 14:43:57;;;;;;;0.60;0.60;;;;;;;;;;1905600;75;26340;-42
2022/09/06 14:46:25;;;;;;;0.70;0.70;;;;;;;;;;1897700;75;26270;-47
2022/09/06 14:48:56;;;;;;;0.60;0.60;;;;;;;;;;1899612;75;26776;-47
2022/09/06 14:51:24;;;;;;;0.60;0.60;;;;;;;;;;1892409;75;26696;-47
2022/09/06 14:53:53;;;;;;;0.50;0.50;;;;;;;;;;1886729;75;26238;-45
2022/09/06 14:56:21;;;;;;;0.62;0.60;;;;;;;;;;1882936;75;26330;-45